sensor_id;sensor_type;location;lat;lon;timestamp;P1;durP1;ratioP1;P2;durP2;ratioP2
21128;SDS011;10722;51.910;8.352;2023-05-25T00:00:47;30.03;;;13.63;;
21128;SDS011;10722;51.910;8.352;2023-05-25T00:03:47;34.05;;;14.23;;
21128;SDS011;10722;51.910;8.352;2023-05-25T00:06:32;33.80;;;13.33;;
21128;SDS011;10722;51.910;8.352;2023-05-25T00:09:18;29.73;;;13.60;;
21128;SDS011;10722;51.910;8.352;2023-05-25T00:12:03;31.93;;;14.50;;
21128;SDS011;10722;51.910;8.352;2023-05-25T00:14:49;38.10;;;14.57;;
21128;SDS011;10722;51.910;8.352;2023-05-25T00:17:34;30.13;;;13.77;;
21128;SDS011;10722;51.910;8.352;2023-05-25T00:20:19;36.83;;;16.45;;
21128;SDS011;10722;51.910;8.352;2023-05-25T00:23:05;40.72;;;16.20;;
21128;SDS011;10722;51.910;8.352;2023-05-25T00:25:50;35.63;;;17.33;;
21128;SDS011;10722;51.910;8.352;2023-05-25T00:28:36;35.03;;;15.70;;
21128;SDS011;10722;51.910;8.352;2023-05-25T00:31:21;33.77;;;15.77;;
21128;SDS011;10722;51.910;8.352;2023-05-25T00:34:06;35.70;;;15.80;;
21128;SDS011;10722;51.910;8.352;2023-05-25T00:36:52;33.47;;;16.53;;
21128;SDS011;10722;51.910;8.352;2023-05-25T00:39:38;38.03;;;16.27;;
21128;SDS011;10722;51.910;8.352;2023-05-25T00:42:24;35.10;;;15.47;;
21128;SDS011;10722;51.910;8.352;2023-05-25T00:45:09;35.30;;;15.70;;
21128;SDS011;10722;51.910;8.352;2023-05-25T00:47:55;37.67;;;16.37;;
21128;SDS011;10722;51.910;8.352;2023-05-25T00:50:42;41.80;;;19.17;;
21128;SDS011;10722;51.910;8.352;2023-05-25T00:53:28;42.47;;;17.93;;
21128;SDS011;10722;51.910;8.352;2023-05-25T00:56:13;39.83;;;18.17;;
21128;SDS011;10722;51.910;8.352;2023-05-25T00:59:02;31.27;;;15.80;;
21128;SDS011;10722;51.910;8.352;2023-05-25T01:01:50;34.60;;;15.70;;
21128;SDS011;10722;51.910;8.352;2023-05-25T01:04:38;35.90;;;15.70;;
21128;SDS011;10722;51.910;8.352;2023-05-25T01:07:27;33.60;;;16.40;;
21128;SDS011;10722;51.910;8.352;2023-05-25T01:10:14;35.03;;;16.43;;
21128;SDS011;10722;51.910;8.352;2023-05-25T01:13:01;27.63;;;14.37;;
21128;SDS011;10722;51.910;8.352;2023-05-25T01:15:46;36.10;;;15.90;;
21128;SDS011;10722;51.910;8.352;2023-05-25T01:18:33;31.27;;;16.33;;
21128;SDS011;10722;51.910;8.352;2023-05-25T01:24:25;33.37;;;15.67;;
21128;SDS011;10722;51.910;8.352;2023-05-25T01:30:12;37.33;;;16.90;;
21128;SDS011;10722;51.910;8.352;2023-05-25T01:32:59;36.13;;;17.80;;
21128;SDS011;10722;51.910;8.352;2023-05-25T01:35:45;33.67;;;16.17;;
21128;SDS011;10722;51.910;8.352;2023-05-25T01:38:32;33.93;;;17.10;;
21128;SDS011;10722;51.910;8.352;2023-05-25T01:41:17;29.53;;;15.37;;
21128;SDS011;10722;51.910;8.352;2023-05-25T01:44:02;29.07;;;13.50;;
21128;SDS011;10722;51.910;8.352;2023-05-25T01:46:49;28.77;;;14.03;;
21128;SDS011;10722;51.910;8.352;2023-05-25T01:50:22;24.60;;;12.83;;
21128;SDS011;10722;51.910;8.352;2023-05-25T01:52:56;31.40;;;15.07;;
21128;SDS011;10722;51.910;8.352;2023-05-25T01:55:50;29.60;;;15.00;;
21128;SDS011;10722;51.910;8.352;2023-05-25T01:58:41;36.10;;;16.37;;
21128;SDS011;10722;51.910;8.352;2023-05-25T02:01:27;41.20;;;16.50;;
21128;SDS011;10722;51.910;8.352;2023-05-25T02:04:15;28.33;;;13.43;;
21128;SDS011;10722;51.910;8.352;2023-05-25T02:07:02;24.17;;;14.20;;
21128;SDS011;10722;51.910;8.352;2023-05-25T02:09:48;26.63;;;14.27;;
21128;SDS011;10722;51.910;8.352;2023-05-25T02:12:34;27.20;;;14.03;;
21128;SDS011;10722;51.910;8.352;2023-05-25T02:15:20;25.50;;;12.60;;
21128;SDS011;10722;51.910;8.352;2023-05-25T02:18:05;32.77;;;16.00;;
21128;SDS011;10722;51.910;8.352;2023-05-25T02:20:50;29.77;;;14.63;;
21128;SDS011;10722;51.910;8.352;2023-05-25T02:23:36;30.50;;;15.00;;
21128;SDS011;10722;51.910;8.352;2023-05-25T02:26:21;27.00;;;14.53;;
21128;SDS011;10722;51.910;8.352;2023-05-25T02:29:07;28.83;;;14.10;;
21128;SDS011;10722;51.910;8.352;2023-05-25T02:31:52;32.87;;;16.20;;
21128;SDS011;10722;51.910;8.352;2023-05-25T02:34:37;25.60;;;14.43;;
21128;SDS011;10722;51.910;8.352;2023-05-25T02:37:23;27.93;;;13.97;;
21128;SDS011;10722;51.910;8.352;2023-05-25T02:40:08;29.60;;;14.37;;
21128;SDS011;10722;51.910;8.352;2023-05-25T02:42:54;30.43;;;15.17;;
21128;SDS011;10722;51.910;8.352;2023-05-25T02:45:39;25.03;;;13.20;;
21128;SDS011;10722;51.910;8.352;2023-05-25T02:48:24;24.93;;;12.60;;
21128;SDS011;10722;51.910;8.352;2023-05-25T02:51:10;26.23;;;12.57;;
21128;SDS011;10722;51.910;8.352;2023-05-25T02:53:55;29.20;;;13.73;;
21128;SDS011;10722;51.910;8.352;2023-05-25T02:56:41;29.60;;;13.97;;
21128;SDS011;10722;51.910;8.352;2023-05-25T02:59:26;31.10;;;16.67;;
21128;SDS011;10722;51.910;8.352;2023-05-25T03:02:11;31.37;;;15.63;;
21128;SDS011;10722;51.910;8.352;2023-05-25T03:04:56;26.33;;;15.03;;
21128;SDS011;10722;51.910;8.352;2023-05-25T03:07:42;28.70;;;15.20;;
21128;SDS011;10722;51.910;8.352;2023-05-25T03:10:27;28.43;;;13.67;;
21128;SDS011;10722;51.910;8.352;2023-05-25T03:13:12;25.87;;;12.73;;
21128;SDS011;10722;51.910;8.352;2023-05-25T03:15:57;23.63;;;11.17;;
21128;SDS011;10722;51.910;8.352;2023-05-25T03:18:43;23.60;;;11.30;;
21128;SDS011;10722;51.910;8.352;2023-05-25T03:21:28;20.17;;;9.90;;
21128;SDS011;10722;51.910;8.352;2023-05-25T03:24:13;22.67;;;11.63;;
21128;SDS011;10722;51.910;8.352;2023-05-25T03:26:59;24.93;;;13.10;;
21128;SDS011;10722;51.910;8.352;2023-05-25T03:29:47;32.20;;;14.73;;
21128;SDS011;10722;51.910;8.352;2023-05-25T03:32:33;20.63;;;11.37;;
21128;SDS011;10722;51.910;8.352;2023-05-25T03:35:18;23.93;;;11.57;;
21128;SDS011;10722;51.910;8.352;2023-05-25T03:38:04;24.23;;;12.00;;
21128;SDS011;10722;51.910;8.352;2023-05-25T03:40:49;21.00;;;10.67;;
21128;SDS011;10722;51.910;8.352;2023-05-25T03:43:34;22.47;;;11.60;;
21128;SDS011;10722;51.910;8.352;2023-05-25T03:46:20;19.47;;;10.43;;
21128;SDS011;10722;51.910;8.352;2023-05-25T03:49:05;20.80;;;10.93;;
21128;SDS011;10722;51.910;8.352;2023-05-25T03:51:50;22.47;;;10.87;;
21128;SDS011;10722;51.910;8.352;2023-05-25T03:54:36;27.83;;;13.40;;
21128;SDS011;10722;51.910;8.352;2023-05-25T03:57:21;27.53;;;14.20;;
21128;SDS011;10722;51.910;8.352;2023-05-25T04:00:06;32.80;;;15.57;;
21128;SDS011;10722;51.910;8.352;2023-05-25T04:02:52;21.77;;;12.60;;
21128;SDS011;10722;51.910;8.352;2023-05-25T04:05:38;21.03;;;11.50;;
21128;SDS011;10722;51.910;8.352;2023-05-25T04:08:23;18.80;;;10.93;;
21128;SDS011;10722;51.910;8.352;2023-05-25T04:11:09;22.73;;;11.13;;
21128;SDS011;10722;51.910;8.352;2023-05-25T04:13:54;20.50;;;10.97;;
21128;SDS011;10722;51.910;8.352;2023-05-25T04:16:39;19.93;;;11.20;;
21128;SDS011;10722;51.910;8.352;2023-05-25T04:19:25;19.90;;;10.03;;
21128;SDS011;10722;51.910;8.352;2023-05-25T04:22:10;19.17;;;10.30;;
21128;SDS011;10722;51.910;8.352;2023-05-25T04:24:55;20.53;;;10.97;;
21128;SDS011;10722;51.910;8.352;2023-05-25T04:27:40;20.33;;;11.17;;
21128;SDS011;10722;51.910;8.352;2023-05-25T04:30:25;24.83;;;12.60;;
21128;SDS011;10722;51.910;8.352;2023-05-25T04:33:10;22.37;;;12.33;;
21128;SDS011;10722;51.910;8.352;2023-05-25T04:35:56;21.97;;;11.83;;
21128;SDS011;10722;51.910;8.352;2023-05-25T04:38:41;26.53;;;13.60;;
21128;SDS011;10722;51.910;8.352;2023-05-25T04:41:26;30.50;;;14.10;;
21128;SDS011;10722;51.910;8.352;2023-05-25T04:44:12;26.87;;;14.70;;
21128;SDS011;10722;51.910;8.352;2023-05-25T04:46:57;27.63;;;13.03;;
21128;SDS011;10722;51.910;8.352;2023-05-25T04:49:43;27.77;;;13.87;;
21128;SDS011;10722;51.910;8.352;2023-05-25T04:52:29;27.80;;;13.53;;
21128;SDS011;10722;51.910;8.352;2023-05-25T04:55:14;27.00;;;14.00;;
21128;SDS011;10722;51.910;8.352;2023-05-25T04:57:59;29.57;;;15.70;;
21128;SDS011;10722;51.910;8.352;2023-05-25T05:00:45;29.43;;;14.63;;
21128;SDS011;10722;51.910;8.352;2023-05-25T05:03:30;27.93;;;14.63;;
21128;SDS011;10722;51.910;8.352;2023-05-25T05:06:16;29.07;;;15.43;;
21128;SDS011;10722;51.910;8.352;2023-05-25T05:09:01;28.07;;;15.13;;
21128;SDS011;10722;51.910;8.352;2023-05-25T05:11:46;32.50;;;14.30;;
21128;SDS011;10722;51.910;8.352;2023-05-25T05:14:31;30.83;;;14.90;;
21128;SDS011;10722;51.910;8.352;2023-05-25T05:17:17;33.47;;;14.50;;
21128;SDS011;10722;51.910;8.352;2023-05-25T05:20:02;31.43;;;14.47;;
21128;SDS011;10722;51.910;8.352;2023-05-25T05:22:48;29.43;;;14.10;;
21128;SDS011;10722;51.910;8.352;2023-05-25T05:25:33;32.67;;;16.48;;
21128;SDS011;10722;51.910;8.352;2023-05-25T05:28:18;28.13;;;15.00;;
21128;SDS011;10722;51.910;8.352;2023-05-25T05:31:04;30.02;;;14.68;;
21128;SDS011;10722;51.910;8.352;2023-05-25T05:33:49;30.33;;;13.60;;
21128;SDS011;10722;51.910;8.352;2023-05-25T05:36:35;28.20;;;14.13;;
21128;SDS011;10722;51.910;8.352;2023-05-25T05:39:40;32.73;;;15.27;;
21128;SDS011;10722;51.910;8.352;2023-05-25T05:42:25;30.02;;;13.52;;
21128;SDS011;10722;51.910;8.352;2023-05-25T05:45:10;30.13;;;13.40;;
21128;SDS011;10722;51.910;8.352;2023-05-25T05:47:55;27.55;;;13.80;;
21128;SDS011;10722;51.910;8.352;2023-05-25T05:50:41;33.25;;;14.70;;
21128;SDS011;10722;51.910;8.352;2023-05-25T05:53:26;33.20;;;14.07;;
21128;SDS011;10722;51.910;8.352;2023-05-25T05:56:18;31.48;;;13.98;;
21128;SDS011;10722;51.910;8.352;2023-05-25T05:59:03;30.20;;;14.18;;
21128;SDS011;10722;51.910;8.352;2023-05-25T06:01:48;26.33;;;12.98;;
21128;SDS011;10722;51.910;8.352;2023-05-25T06:04:34;31.83;;;13.50;;
21128;SDS011;10722;51.910;8.352;2023-05-25T06:07:19;28.23;;;13.03;;
21128;SDS011;10722;51.910;8.352;2023-05-25T06:10:05;28.55;;;12.75;;
21128;SDS011;10722;51.910;8.352;2023-05-25T06:12:51;31.38;;;13.45;;
21128;SDS011;10722;51.910;8.352;2023-05-25T06:15:36;29.55;;;13.85;;
21128;SDS011;10722;51.910;8.352;2023-05-25T06:18:22;30.48;;;13.52;;
21128;SDS011;10722;51.910;8.352;2023-05-25T06:21:07;23.77;;;12.18;;
21128;SDS011;10722;51.910;8.352;2023-05-25T06:23:54;26.40;;;12.57;;
21128;SDS011;10722;51.910;8.352;2023-05-25T06:26:39;28.98;;;13.00;;
21128;SDS011;10722;51.910;8.352;2023-05-25T06:29:25;27.60;;;12.07;;
21128;SDS011;10722;51.910;8.352;2023-05-25T06:32:10;29.00;;;13.07;;
21128;SDS011;10722;51.910;8.352;2023-05-25T06:34:55;29.90;;;13.10;;
21128;SDS011;10722;51.910;8.352;2023-05-25T06:37:41;28.48;;;12.57;;
21128;SDS011;10722;51.910;8.352;2023-05-25T06:40:26;27.08;;;12.10;;
21128;SDS011;10722;51.910;8.352;2023-05-25T06:43:12;30.00;;;12.20;;
21128;SDS011;10722;51.910;8.352;2023-05-25T06:45:57;30.15;;;12.90;;
21128;SDS011;10722;51.910;8.352;2023-05-25T06:48:42;26.33;;;12.87;;
21128;SDS011;10722;51.910;8.352;2023-05-25T06:51:28;31.20;;;13.60;;
21128;SDS011;10722;51.910;8.352;2023-05-25T06:54:13;29.13;;;13.20;;
21128;SDS011;10722;51.910;8.352;2023-05-25T06:56:58;27.83;;;13.15;;
21128;SDS011;10722;51.910;8.352;2023-05-25T06:59:44;32.40;;;15.57;;
21128;SDS011;10722;51.910;8.352;2023-05-25T07:02:29;29.45;;;14.05;;
21128;SDS011;10722;51.910;8.352;2023-05-25T07:05:15;31.15;;;14.25;;
21128;SDS011;10722;51.910;8.352;2023-05-25T07:08:00;31.50;;;14.98;;
21128;SDS011;10722;51.910;8.352;2023-05-25T07:10:45;28.23;;;15.00;;
21128;SDS011;10722;51.910;8.352;2023-05-25T07:13:34;30.77;;;14.85;;
21128;SDS011;10722;51.910;8.352;2023-05-25T07:16:19;32.38;;;16.40;;
21128;SDS011;10722;51.910;8.352;2023-05-25T07:19:05;34.25;;;16.27;;
21128;SDS011;10722;51.910;8.352;2023-05-25T07:21:50;34.55;;;17.60;;
21128;SDS011;10722;51.910;8.352;2023-05-25T07:24:36;37.83;;;18.00;;
21128;SDS011;10722;51.910;8.352;2023-05-25T07:27:21;33.60;;;19.10;;
21128;SDS011;10722;51.910;8.352;2023-05-25T07:30:06;35.07;;;19.10;;
21128;SDS011;10722;51.910;8.352;2023-05-25T07:32:52;39.47;;;19.17;;
21128;SDS011;10722;51.910;8.352;2023-05-25T07:35:37;36.65;;;19.02;;
21128;SDS011;10722;51.910;8.352;2023-05-25T07:38:22;38.15;;;20.63;;
21128;SDS011;10722;51.910;8.352;2023-05-25T07:41:08;35.70;;;19.50;;
21128;SDS011;10722;51.910;8.352;2023-05-25T07:43:53;37.20;;;20.37;;
21128;SDS011;10722;51.910;8.352;2023-05-25T07:46:39;41.17;;;21.35;;
21128;SDS011;10722;51.910;8.352;2023-05-25T07:49:24;38.13;;;20.90;;
21128;SDS011;10722;51.910;8.352;2023-05-25T07:52:10;41.43;;;21.00;;
21128;SDS011;10722;51.910;8.352;2023-05-25T07:54:55;37.13;;;21.77;;
21128;SDS011;10722;51.910;8.352;2023-05-25T07:57:41;41.57;;;20.80;;
21128;SDS011;10722;51.910;8.352;2023-05-25T08:00:26;35.07;;;19.77;;
21128;SDS011;10722;51.910;8.352;2023-05-25T08:03:11;34.20;;;18.15;;
21128;SDS011;10722;51.910;8.352;2023-05-25T08:05:57;37.40;;;19.07;;
21128;SDS011;10722;51.910;8.352;2023-05-25T08:08:42;31.58;;;17.60;;
21128;SDS011;10722;51.910;8.352;2023-05-25T08:11:27;36.78;;;18.25;;
21128;SDS011;10722;51.910;8.352;2023-05-25T08:14:13;30.85;;;16.63;;
21128;SDS011;10722;51.910;8.352;2023-05-25T08:16:58;31.25;;;16.20;;
21128;SDS011;10722;51.910;8.352;2023-05-25T08:19:44;30.75;;;15.15;;
21128;SDS011;10722;51.910;8.352;2023-05-25T08:22:29;32.80;;;16.45;;
21128;SDS011;10722;51.910;8.352;2023-05-25T08:25:14;32.33;;;16.40;;
21128;SDS011;10722;51.910;8.352;2023-05-25T08:27:59;31.30;;;16.35;;
21128;SDS011;10722;51.910;8.352;2023-05-25T08:30:45;30.52;;;16.05;;
21128;SDS011;10722;51.910;8.352;2023-05-25T08:33:30;31.08;;;15.55;;
21128;SDS011;10722;51.910;8.352;2023-05-25T08:36:16;29.92;;;16.23;;
21128;SDS011;10722;51.910;8.352;2023-05-25T08:39:01;28.00;;;14.68;;
21128;SDS011;10722;51.910;8.352;2023-05-25T08:41:47;31.23;;;17.38;;
21128;SDS011;10722;51.910;8.352;2023-05-25T08:44:34;29.52;;;14.20;;
21128;SDS011;10722;51.910;8.352;2023-05-25T08:47:21;27.95;;;14.10;;
21128;SDS011;10722;51.910;8.352;2023-05-25T08:50:10;31.45;;;14.20;;
21128;SDS011;10722;51.910;8.352;2023-05-25T08:52:56;27.45;;;13.95;;
21128;SDS011;10722;51.910;8.352;2023-05-25T08:55:46;30.67;;;14.18;;
21128;SDS011;10722;51.910;8.352;2023-05-25T08:58:33;28.75;;;14.57;;
21128;SDS011;10722;51.910;8.352;2023-05-25T09:01:27;29.55;;;14.45;;
21128;SDS011;10722;51.910;8.352;2023-05-25T09:04:17;30.23;;;14.38;;
21128;SDS011;10722;51.910;8.352;2023-05-25T09:07:03;28.60;;;13.85;;
21128;SDS011;10722;51.910;8.352;2023-05-25T09:09:55;26.98;;;13.38;;
21128;SDS011;10722;51.910;8.352;2023-05-25T09:12:41;26.77;;;13.57;;
21128;SDS011;10722;51.910;8.352;2023-05-25T09:15:26;27.33;;;13.93;;
21128;SDS011;10722;51.910;8.352;2023-05-25T09:18:12;25.63;;;13.55;;
21128;SDS011;10722;51.910;8.352;2023-05-25T09:20:57;27.92;;;12.90;;
21128;SDS011;10722;51.910;8.352;2023-05-25T09:23:42;28.23;;;12.63;;
21128;SDS011;10722;51.910;8.352;2023-05-25T09:26:28;26.23;;;12.73;;
21128;SDS011;10722;51.910;8.352;2023-05-25T09:29:14;26.58;;;13.07;;
21128;SDS011;10722;51.910;8.352;2023-05-25T09:31:59;31.38;;;13.77;;
21128;SDS011;10722;51.910;8.352;2023-05-25T09:34:45;29.75;;;14.07;;
21128;SDS011;10722;51.910;8.352;2023-05-25T09:37:31;28.80;;;12.85;;
21128;SDS011;10722;51.910;8.352;2023-05-25T09:40:16;25.85;;;12.48;;
21128;SDS011;10722;51.910;8.352;2023-05-25T09:43:02;27.35;;;14.05;;
21128;SDS011;10722;51.910;8.352;2023-05-25T09:45:48;25.55;;;12.35;;
21128;SDS011;10722;51.910;8.352;2023-05-25T09:48:36;23.92;;;12.50;;
21128;SDS011;10722;51.910;8.352;2023-05-25T09:51:22;25.48;;;12.73;;
21128;SDS011;10722;51.910;8.352;2023-05-25T09:54:08;24.48;;;12.45;;
21128;SDS011;10722;51.910;8.352;2023-05-25T09:56:54;29.83;;;12.73;;
21128;SDS011;10722;51.910;8.352;2023-05-25T09:59:40;25.75;;;13.13;;
21128;SDS011;10722;51.910;8.352;2023-05-25T10:02:26;30.60;;;12.93;;
21128;SDS011;10722;51.910;8.352;2023-05-25T10:05:12;34.38;;;13.30;;
21128;SDS011;10722;51.910;8.352;2023-05-25T10:07:57;26.08;;;13.43;;
21128;SDS011;10722;51.910;8.352;2023-05-25T10:10:45;29.85;;;13.50;;
21128;SDS011;10722;51.910;8.352;2023-05-25T10:13:34;30.10;;;12.70;;
21128;SDS011;10722;51.910;8.352;2023-05-25T10:16:23;26.98;;;13.27;;
21128;SDS011;10722;51.910;8.352;2023-05-25T10:19:13;25.27;;;13.45;;
21128;SDS011;10722;51.910;8.352;2023-05-25T10:22:01;28.58;;;13.32;;
21128;SDS011;10722;51.910;8.352;2023-05-25T10:24:58;26.67;;;13.57;;
21128;SDS011;10722;51.910;8.352;2023-05-25T10:27:47;25.27;;;12.35;;
21128;SDS011;10722;51.910;8.352;2023-05-25T10:30:43;26.75;;;13.23;;
21128;SDS011;10722;51.910;8.352;2023-05-25T10:33:30;28.17;;;13.38;;
21128;SDS011;10722;51.910;8.352;2023-05-25T10:36:16;28.52;;;13.70;;
21128;SDS011;10722;51.910;8.352;2023-05-25T10:39:04;27.85;;;13.32;;
21128;SDS011;10722;51.910;8.352;2023-05-25T10:41:53;26.05;;;13.43;;
21128;SDS011;10722;51.910;8.352;2023-05-25T10:44:41;26.88;;;13.20;;
21128;SDS011;10722;51.910;8.352;2023-05-25T10:47:28;24.33;;;12.43;;
21128;SDS011;10722;51.910;8.352;2023-05-25T10:50:22;20.98;;;10.25;;
21128;SDS011;10722;51.910;8.352;2023-05-25T10:53:11;22.90;;;11.27;;
21128;SDS011;10722;51.910;8.352;2023-05-25T10:58:42;22.48;;;10.98;;
21128;SDS011;10722;51.910;8.352;2023-05-25T11:01:30;25.52;;;11.27;;
21128;SDS011;10722;51.910;8.352;2023-05-25T11:04:15;25.98;;;11.55;;
21128;SDS011;10722;51.910;8.352;2023-05-25T11:09:56;27.20;;;10.70;;
21128;SDS011;10722;51.910;8.352;2023-05-25T11:12:42;23.83;;;9.85;;
21128;SDS011;10722;51.910;8.352;2023-05-25T11:15:30;20.38;;;9.10;;
21128;SDS011;10722;51.910;8.352;2023-05-25T11:18:15;23.35;;;9.88;;
21128;SDS011;10722;51.910;8.352;2023-05-25T11:21:10;24.05;;;9.70;;
21128;SDS011;10722;51.910;8.352;2023-05-25T11:24:15;22.63;;;8.90;;
21128;SDS011;10722;51.910;8.352;2023-05-25T11:27:01;23.45;;;8.20;;
21128;SDS011;10722;51.910;8.352;2023-05-25T11:29:48;22.48;;;7.88;;
21128;SDS011;10722;51.910;8.352;2023-05-25T11:32:35;20.90;;;7.72;;
21128;SDS011;10722;51.910;8.352;2023-05-25T11:35:20;20.27;;;8.32;;
21128;SDS011;10722;51.910;8.352;2023-05-25T11:38:06;21.73;;;7.90;;
21128;SDS011;10722;51.910;8.352;2023-05-25T11:40:51;20.88;;;8.32;;
21128;SDS011;10722;51.910;8.352;2023-05-25T11:43:37;21.88;;;8.48;;
21128;SDS011;10722;51.910;8.352;2023-05-25T11:46:22;17.88;;;7.22;;
21128;SDS011;10722;51.910;8.352;2023-05-25T11:49:08;18.33;;;7.45;;
21128;SDS011;10722;51.910;8.352;2023-05-25T11:51:55;24.73;;;8.07;;
21128;SDS011;10722;51.910;8.352;2023-05-25T11:54:41;23.48;;;7.35;;
21128;SDS011;10722;51.910;8.352;2023-05-25T11:57:27;21.38;;;7.97;;
21128;SDS011;10722;51.910;8.352;2023-05-25T12:00:12;20.20;;;7.47;;
21128;SDS011;10722;51.910;8.352;2023-05-25T12:03:08;19.50;;;6.95;;
21128;SDS011;10722;51.910;8.352;2023-05-25T12:05:53;21.38;;;7.60;;
21128;SDS011;10722;51.910;8.352;2023-05-25T12:08:39;20.05;;;7.28;;
21128;SDS011;10722;51.910;8.352;2023-05-25T12:11:32;18.98;;;7.10;;
21128;SDS011;10722;51.910;8.352;2023-05-25T12:14:18;21.05;;;7.18;;
21128;SDS011;10722;51.910;8.352;2023-05-25T12:17:04;19.60;;;6.85;;
21128;SDS011;10722;51.910;8.352;2023-05-25T12:19:50;21.83;;;6.93;;
21128;SDS011;10722;51.910;8.352;2023-05-25T12:22:36;21.73;;;7.30;;
21128;SDS011;10722;51.910;8.352;2023-05-25T12:25:23;19.90;;;6.50;;
21128;SDS011;10722;51.910;8.352;2023-05-25T12:28:12;18.45;;;6.47;;
21128;SDS011;10722;51.910;8.352;2023-05-25T12:30:58;18.88;;;6.50;;
21128;SDS011;10722;51.910;8.352;2023-05-25T12:34:13;18.48;;;6.78;;
21128;SDS011;10722;51.910;8.352;2023-05-25T12:37:00;19.73;;;6.43;;
21128;SDS011;10722;51.910;8.352;2023-05-25T12:39:46;17.92;;;6.78;;
21128;SDS011;10722;51.910;8.352;2023-05-25T12:42:32;18.33;;;6.65;;
21128;SDS011;10722;51.910;8.352;2023-05-25T12:45:17;18.55;;;6.88;;
21128;SDS011;10722;51.910;8.352;2023-05-25T12:48:02;15.82;;;6.28;;
21128;SDS011;10722;51.910;8.352;2023-05-25T12:50:57;16.73;;;6.68;;
21128;SDS011;10722;51.910;8.352;2023-05-25T12:53:49;18.30;;;7.20;;
21128;SDS011;10722;51.910;8.352;2023-05-25T12:56:51;16.38;;;6.25;;
21128;SDS011;10722;51.910;8.352;2023-05-25T12:59:39;19.75;;;6.35;;
21128;SDS011;10722;51.910;8.352;2023-05-25T13:02:25;16.65;;;6.40;;
21128;SDS011;10722;51.910;8.352;2023-05-25T13:05:21;17.88;;;5.50;;
21128;SDS011;10722;51.910;8.352;2023-05-25T13:08:10;17.00;;;5.85;;
21128;SDS011;10722;51.910;8.352;2023-05-25T13:10:56;15.77;;;6.30;;
21128;SDS011;10722;51.910;8.352;2023-05-25T13:13:41;17.30;;;5.63;;
21128;SDS011;10722;51.910;8.352;2023-05-25T13:16:27;19.48;;;6.63;;
21128;SDS011;10722;51.910;8.352;2023-05-25T13:19:14;15.85;;;6.40;;
21128;SDS011;10722;51.910;8.352;2023-05-25T13:22:00;16.13;;;6.18;;
21128;SDS011;10722;51.910;8.352;2023-05-25T13:24:46;17.80;;;6.53;;
21128;SDS011;10722;51.910;8.352;2023-05-25T13:27:31;18.50;;;7.00;;
21128;SDS011;10722;51.910;8.352;2023-05-25T13:30:17;15.10;;;6.22;;
21128;SDS011;10722;51.910;8.352;2023-05-25T13:33:02;18.35;;;6.35;;
21128;SDS011;10722;51.910;8.352;2023-05-25T13:35:48;16.10;;;5.93;;
21128;SDS011;10722;51.910;8.352;2023-05-25T13:38:34;15.82;;;5.93;;
21128;SDS011;10722;51.910;8.352;2023-05-25T13:41:20;14.63;;;5.85;;
21128;SDS011;10722;51.910;8.352;2023-05-25T13:44:05;18.20;;;6.13;;
21128;SDS011;10722;51.910;8.352;2023-05-25T13:46:51;17.92;;;5.85;;
21128;SDS011;10722;51.910;8.352;2023-05-25T13:49:36;16.35;;;5.75;;
21128;SDS011;10722;51.910;8.352;2023-05-25T13:52:22;17.63;;;6.07;;
21128;SDS011;10722;51.910;8.352;2023-05-25T13:55:07;16.02;;;5.78;;
21128;SDS011;10722;51.910;8.352;2023-05-25T13:57:52;15.57;;;6.20;;
21128;SDS011;10722;51.910;8.352;2023-05-25T14:00:38;19.15;;;6.88;;
21128;SDS011;10722;51.910;8.352;2023-05-25T14:03:23;19.40;;;6.82;;
21128;SDS011;10722;51.910;8.352;2023-05-25T14:06:08;16.20;;;5.35;;
21128;SDS011;10722;51.910;8.352;2023-05-25T14:08:54;17.75;;;5.80;;
21128;SDS011;10722;51.910;8.352;2023-05-25T14:11:39;18.55;;;5.40;;
21128;SDS011;10722;51.910;8.352;2023-05-25T14:14:24;19.30;;;6.25;;
21128;SDS011;10722;51.910;8.352;2023-05-25T14:17:16;19.90;;;6.15;;
21128;SDS011;10722;51.910;8.352;2023-05-25T14:20:02;17.25;;;5.40;;
21128;SDS011;10722;51.910;8.352;2023-05-25T14:22:48;18.92;;;6.40;;
21128;SDS011;10722;51.910;8.352;2023-05-25T14:25:33;20.48;;;7.22;;
21128;SDS011;10722;51.910;8.352;2023-05-25T14:28:18;17.98;;;5.80;;
21128;SDS011;10722;51.910;8.352;2023-05-25T14:31:04;19.63;;;6.10;;
21128;SDS011;10722;51.910;8.352;2023-05-25T14:33:49;20.35;;;6.15;;
21128;SDS011;10722;51.910;8.352;2023-05-25T14:36:34;23.48;;;6.63;;
21128;SDS011;10722;51.910;8.352;2023-05-25T14:39:19;21.05;;;6.47;;
21128;SDS011;10722;51.910;8.352;2023-05-25T14:42:05;18.02;;;5.80;;
21128;SDS011;10722;51.910;8.352;2023-05-25T14:44:50;17.88;;;6.30;;
21128;SDS011;10722;51.910;8.352;2023-05-25T14:47:36;20.92;;;6.38;;
21128;SDS011;10722;51.910;8.352;2023-05-25T14:50:21;22.60;;;7.25;;
21128;SDS011;10722;51.910;8.352;2023-05-25T14:53:07;22.25;;;7.07;;
21128;SDS011;10722;51.910;8.352;2023-05-25T14:55:52;21.15;;;6.88;;
21128;SDS011;10722;51.910;8.352;2023-05-25T14:58:37;18.77;;;6.63;;
21128;SDS011;10722;51.910;8.352;2023-05-25T15:01:23;21.17;;;6.57;;
21128;SDS011;10722;51.910;8.352;2023-05-25T15:04:09;19.45;;;6.50;;
21128;SDS011;10722;51.910;8.352;2023-05-25T15:06:55;23.15;;;6.90;;
21128;SDS011;10722;51.910;8.352;2023-05-25T15:09:41;21.73;;;6.38;;
21128;SDS011;10722;51.910;8.352;2023-05-25T15:12:26;22.95;;;7.05;;
21128;SDS011;10722;51.910;8.352;2023-05-25T15:15:11;21.52;;;6.53;;
21128;SDS011;10722;51.910;8.352;2023-05-25T15:17:56;23.77;;;6.53;;
21128;SDS011;10722;51.910;8.352;2023-05-25T15:20:42;23.98;;;6.20;;
21128;SDS011;10722;51.910;8.352;2023-05-25T15:23:27;21.13;;;6.38;;
21128;SDS011;10722;51.910;8.352;2023-05-25T15:26:13;22.35;;;6.75;;
21128;SDS011;10722;51.910;8.352;2023-05-25T15:28:59;23.92;;;6.30;;
21128;SDS011;10722;51.910;8.352;2023-05-25T15:31:44;26.98;;;6.97;;
21128;SDS011;10722;51.910;8.352;2023-05-25T15:34:29;28.02;;;7.25;;
21128;SDS011;10722;51.910;8.352;2023-05-25T15:37:15;23.92;;;6.30;;
21128;SDS011;10722;51.910;8.352;2023-05-25T15:40:00;20.13;;;6.18;;
21128;SDS011;10722;51.910;8.352;2023-05-25T15:42:46;22.08;;;6.20;;
21128;SDS011;10722;51.910;8.352;2023-05-25T15:45:31;26.17;;;6.45;;
21128;SDS011;10722;51.910;8.352;2023-05-25T15:48:17;21.52;;;6.20;;
21128;SDS011;10722;51.910;8.352;2023-05-25T15:51:02;20.10;;;6.13;;
21128;SDS011;10722;51.910;8.352;2023-05-25T15:53:47;23.60;;;6.28;;
21128;SDS011;10722;51.910;8.352;2023-05-25T15:56:33;41.40;;;27.23;;
21128;SDS011;10722;51.910;8.352;2023-05-25T15:59:19;23.85;;;8.90;;
21128;SDS011;10722;51.910;8.352;2023-05-25T16:02:04;30.15;;;10.95;;
21128;SDS011;10722;51.910;8.352;2023-05-25T16:04:50;24.13;;;6.68;;
21128;SDS011;10722;51.910;8.352;2023-05-25T16:07:36;27.88;;;6.55;;
21128;SDS011;10722;51.910;8.352;2023-05-25T16:10:21;19.98;;;6.05;;
21128;SDS011;10722;51.910;8.352;2023-05-25T16:13:06;24.63;;;6.05;;
21128;SDS011;10722;51.910;8.352;2023-05-25T16:15:52;21.70;;;6.05;;
21128;SDS011;10722;51.910;8.352;2023-05-25T16:18:37;22.23;;;5.88;;
21128;SDS011;10722;51.910;8.352;2023-05-25T16:21:23;22.05;;;5.97;;
21128;SDS011;10722;51.910;8.352;2023-05-25T16:24:08;23.77;;;6.57;;
21128;SDS011;10722;51.910;8.352;2023-05-25T16:26:54;24.23;;;6.45;;
21128;SDS011;10722;51.910;8.352;2023-05-25T16:29:39;23.27;;;6.32;;